sensor_id;sensor_type;location;lat;lon;timestamp;temperature;humidity
6098;DHT22;3077;50.922;6.584;2022-09-09T00:01:09;17.00;99.90
6098;DHT22;3077;50.922;6.584;2022-09-09T00:03:45;17.10;99.90
6098;DHT22;3077;50.922;6.584;2022-09-09T00:06:21;17.10;99.90
6098;DHT22;3077;50.922;6.584;2022-09-09T00:11:26;17.20;99.90
6098;DHT22;3077;50.922;6.584;2022-09-09T00:13:54;17.20;99.90
6098;DHT22;3077;50.922;6.584;2022-09-09T00:16:25;17.20;99.90
6098;DHT22;3077;50.922;6.584;2022-09-09T00:21:36;17.10;99.90
6098;DHT22;3077;50.922;6.584;2022-09-09T00:24:10;17.10;99.90
6098;DHT22;3077;50.922;6.584;2022-09-09T00:26:47;17.10;99.90
6098;DHT22;3077;50.922;6.584;2022-09-09T00:29:45;17.10;99.90
6098;DHT22;3077;50.922;6.584;2022-09-09T00:32:17;17.00;99.90
6098;DHT22;3077;50.922;6.584;2022-09-09T00:34:56;16.90;99.90
6098;DHT22;3077;50.922;6.584;2022-09-09T00:37:25;16.80;99.90
6098;DHT22;3077;50.922;6.584;2022-09-09T00:39:54;16.80;99.90
6098;DHT22;3077;50.922;6.584;2022-09-09T00:42:53;16.80;99.90
6098;DHT22;3077;50.922;6.584;2022-09-09T00:45:44;16.90;99.90
6098;DHT22;3077;50.922;6.584;2022-09-09T00:48:11;16.90;99.90
6098;DHT22;3077;50.922;6.584;2022-09-09T00:50:52;16.90;99.90
6098;DHT22;3077;50.922;6.584;2022-09-09T00:56:18;16.80;99.90
6098;DHT22;3077;50.922;6.584;2022-09-09T00:59:00;16.90;99.90
6098;DHT22;3077;50.922;6.584;2022-09-09T01:01:29;16.90;99.90
6098;DHT22;3077;50.922;6.584;2022-09-09T01:03:55;16.90;99.90
6098;DHT22;3077;50.922;6.584;2022-09-09T01:06:37;17.00;99.90
6098;DHT22;3077;50.922;6.584;2022-09-09T01:15:16;17.00;99.90
6098;DHT22;3077;50.922;6.584;2022-09-09T01:28:46;16.90;99.90
6098;DHT22;3077;50.922;6.584;2022-09-09T01:31:17;16.90;99.90
6098;DHT22;3077;50.922;6.584;2022-09-09T01:33:44;16.90;99.90
6098;DHT22;3077;50.922;6.584;2022-09-09T01:36:19;16.90;99.90
6098;DHT22;3077;50.922;6.584;2022-09-09T01:38:46;16.90;99.90
6098;DHT22;3077;50.922;6.584;2022-09-09T01:41:12;16.90;99.90
6098;DHT22;3077;50.922;6.584;2022-09-09T01:43:38;16.90;99.90
6098;DHT22;3077;50.922;6.584;2022-09-09T01:46:04;17.00;99.90
6098;DHT22;3077;50.922;6.584;2022-09-09T01:48:31;16.90;99.90
6098;DHT22;3077;50.922;6.584;2022-09-09T01:50:57;16.90;99.90
6098;DHT22;3077;50.922;6.584;2022-09-09T01:53:23;16.90;99.90
6098;DHT22;3077;50.922;6.584;2022-09-09T01:56:56;17.00;99.90
6098;DHT22;3077;50.922;6.584;2022-09-09T02:01:32;17.00;99.90
6098;DHT22;3077;50.922;6.584;2022-09-09T02:04:05;17.00;99.90
6098;DHT22;3077;50.922;6.584;2022-09-09T02:06:38;17.00;99.90
6098;DHT22;3077;50.922;6.584;2022-09-09T02:09:06;17.00;99.90
6098;DHT22;3077;50.922;6.584;2022-09-09T02:11:33;17.00;99.90
6098;DHT22;3077;50.922;6.584;2022-09-09T02:14:27;17.00;99.90
6098;DHT22;3077;50.922;6.584;2022-09-09T02:16:57;17.00;99.90
6098;DHT22;3077;50.922;6.584;2022-09-09T02:19:34;16.90;99.90
6098;DHT22;3077;50.922;6.584;2022-09-09T02:22:02;16.90;99.90
6098;DHT22;3077;50.922;6.584;2022-09-09T02:24:32;16.90;99.90
6098;DHT22;3077;50.922;6.584;2022-09-09T02:27:00;16.80;99.90
6098;DHT22;3077;50.922;6.584;2022-09-09T02:29:41;16.90;99.90
6098;DHT22;3077;50.922;6.584;2022-09-09T02:32:12;16.90;99.90
6098;DHT22;3077;50.922;6.584;2022-09-09T02:34:44;16.90;99.90
6098;DHT22;3077;50.922;6.584;2022-09-09T02:37:11;16.90;99.90
6098;DHT22;3077;50.922;6.584;2022-09-09T02:39:37;17.00;99.90
6098;DHT22;3077;50.922;6.584;2022-09-09T02:42:06;17.10;99.90
6098;DHT22;3077;50.922;6.584;2022-09-09T02:44:33;17.00;99.90
6098;DHT22;3077;50.922;6.584;2022-09-09T02:47:16;17.10;99.90
6098;DHT22;3077;50.922;6.584;2022-09-09T02:52:18;17.20;99.90
6098;DHT22;3077;50.922;6.584;2022-09-09T02:54:44;17.20;99.90
6098;DHT22;3077;50.922;6.584;2022-09-09T02:57:30;17.10;99.90
6098;DHT22;3077;50.922;6.584;2022-09-09T02:59:58;17.10;99.90
6098;DHT22;3077;50.922;6.584;2022-09-09T03:02:24;17.20;99.90
6098;DHT22;3077;50.922;6.584;2022-09-09T03:04:50;17.20;99.90
6098;DHT22;3077;50.922;6.584;2022-09-09T03:07:18;17.20;99.90
6098;DHT22;3077;50.922;6.584;2022-09-09T03:09:44;17.20;99.90
6098;DHT22;3077;50.922;6.584;2022-09-09T03:12:10;17.10;99.90
6098;DHT22;3077;50.922;6.584;2022-09-09T03:14:36;17.20;99.90
6098;DHT22;3077;50.922;6.584;2022-09-09T03:17:07;17.10;99.90
6098;DHT22;3077;50.922;6.584;2022-09-09T03:19:34;17.10;99.90
6098;DHT22;3077;50.922;6.584;2022-09-09T03:22:00;17.10;99.90
6098;DHT22;3077;50.922;6.584;2022-09-09T03:24:26;17.10;99.90
6098;DHT22;3077;50.922;6.584;2022-09-09T03:26:52;17.10;99.90
6098;DHT22;3077;50.922;6.584;2022-09-09T03:29:18;17.00;99.90
6098;DHT22;3077;50.922;6.584;2022-09-09T03:31:43;17.00;99.90
6098;DHT22;3077;50.922;6.584;2022-09-09T03:34:10;17.10;99.90
6098;DHT22;3077;50.922;6.584;2022-09-09T03:36:36;17.10;99.90
6098;DHT22;3077;50.922;6.584;2022-09-09T03:39:02;17.20;99.90
6098;DHT22;3077;50.922;6.584;2022-09-09T03:41:29;17.20;99.90
6098;DHT22;3077;50.922;6.584;2022-09-09T03:43:54;17.20;99.90
6098;DHT22;3077;50.922;6.584;2022-09-09T03:46:21;17.20;99.90
6098;DHT22;3077;50.922;6.584;2022-09-09T03:48:47;17.20;99.90
6098;DHT22;3077;50.922;6.584;2022-09-09T03:51:14;17.30;99.90
6098;DHT22;3077;50.922;6.584;2022-09-09T03:53:41;17.30;99.90
6098;DHT22;3077;50.922;6.584;2022-09-09T03:56:08;17.30;99.90
6098;DHT22;3077;50.922;6.584;2022-09-09T03:58:35;17.30;99.90
6098;DHT22;3077;50.922;6.584;2022-09-09T04:01:12;17.40;99.90
6098;DHT22;3077;50.922;6.584;2022-09-09T04:03:39;17.50;99.90
6098;DHT22;3077;50.922;6.584;2022-09-09T04:06:08;17.40;99.90
6098;DHT22;3077;50.922;6.584;2022-09-09T04:08:35;17.50;99.90
6098;DHT22;3077;50.922;6.584;2022-09-09T04:11:02;17.50;99.90
6098;DHT22;3077;50.922;6.584;2022-09-09T04:13:30;17.50;99.90
6098;DHT22;3077;50.922;6.584;2022-09-09T04:15:58;17.50;99.90
6098;DHT22;3077;50.922;6.584;2022-09-09T04:18:25;17.50;99.90
6098;DHT22;3077;50.922;6.584;2022-09-09T04:20:52;17.60;99.90
6098;DHT22;3077;50.922;6.584;2022-09-09T04:23:18;17.50;99.90
6098;DHT22;3077;50.922;6.584;2022-09-09T04:25:49;17.60;99.90
6098;DHT22;3077;50.922;6.584;2022-09-09T04:28:16;17.50;99.90
6098;DHT22;3077;50.922;6.584;2022-09-09T04:30:43;17.50;99.90
6098;DHT22;3077;50.922;6.584;2022-09-09T04:33:09;17.60;99.90
6098;DHT22;3077;50.922;6.584;2022-09-09T04:35:36;17.60;99.90
6098;DHT22;3077;50.922;6.584;2022-09-09T04:38:03;17.60;99.90
6098;DHT22;3077;50.922;6.584;2022-09-09T04:40:30;17.60;99.90
6098;DHT22;3077;50.922;6.584;2022-09-09T04:42:58;17.60;99.90
6098;DHT22;3077;50.922;6.584;2022-09-09T04:45:23;17.60;99.90
6098;DHT22;3077;50.922;6.584;2022-09-09T04:47:49;17.60;99.90
6098;DHT22;3077;50.922;6.584;2022-09-09T04:50:15;17.70;99.90
6098;DHT22;3077;50.922;6.584;2022-09-09T04:52:41;17.70;99.90
6098;DHT22;3077;50.922;6.584;2022-09-09T04:55:07;17.70;99.90
6098;DHT22;3077;50.922;6.584;2022-09-09T04:57:34;17.70;99.90
6098;DHT22;3077;50.922;6.584;2022-09-09T04:59:59;17.70;99.90
6098;DHT22;3077;50.922;6.584;2022-09-09T05:02:26;17.70;99.90
6098;DHT22;3077;50.922;6.584;2022-09-09T05:04:51;17.70;99.90
6098;DHT22;3077;50.922;6.584;2022-09-09T05:07:17;17.70;99.90
6098;DHT22;3077;50.922;6.584;2022-09-09T05:09:43;17.70;99.90
6098;DHT22;3077;50.922;6.584;2022-09-09T05:12:08;17.70;99.90
6098;DHT22;3077;50.922;6.584;2022-09-09T05:14:34;17.70;99.90
6098;DHT22;3077;50.922;6.584;2022-09-09T05:17:03;17.60;99.90
6098;DHT22;3077;50.922;6.584;2022-09-09T05:19:28;17.60;99.90
6098;DHT22;3077;50.922;6.584;2022-09-09T05:21:55;17.60;99.90
6098;DHT22;3077;50.922;6.584;2022-09-09T05:24:22;17.60;99.90
6098;DHT22;3077;50.922;6.584;2022-09-09T05:26:48;17.60;99.90
6098;DHT22;3077;50.922;6.584;2022-09-09T05:29:14;17.60;99.90
6098;DHT22;3077;50.922;6.584;2022-09-09T05:31:39;17.70;99.90
6098;DHT22;3077;50.922;6.584;2022-09-09T05:34:06;17.70;99.90
6098;DHT22;3077;50.922;6.584;2022-09-09T05:36:32;17.70;99.90
6098;DHT22;3077;50.922;6.584;2022-09-09T05:38:57;17.70;99.90
6098;DHT22;3077;50.922;6.584;2022-09-09T05:41:23;17.70;99.90
6098;DHT22;3077;50.922;6.584;2022-09-09T05:43:49;17.70;99.90
6098;DHT22;3077;50.922;6.584;2022-09-09T05:46:19;17.70;99.90
6098;DHT22;3077;50.922;6.584;2022-09-09T05:48:46;17.60;99.90
6098;DHT22;3077;50.922;6.584;2022-09-09T05:51:14;17.70;99.90
6098;DHT22;3077;50.922;6.584;2022-09-09T05:53:42;17.70;99.90
6098;DHT22;3077;50.922;6.584;2022-09-09T05:56:20;17.70;99.90
6098;DHT22;3077;50.922;6.584;2022-09-09T05:58:47;17.70;99.90
6098;DHT22;3077;50.922;6.584;2022-09-09T06:01:18;17.70;99.90
6098;DHT22;3077;50.922;6.584;2022-09-09T06:03:44;17.70;99.90
6098;DHT22;3077;50.922;6.584;2022-09-09T06:06:13;17.60;99.90
6098;DHT22;3077;50.922;6.584;2022-09-09T06:08:41;17.60;99.90
6098;DHT22;3077;50.922;6.584;2022-09-09T06:13:35;17.60;99.90
6098;DHT22;3077;50.922;6.584;2022-09-09T06:16:02;17.60;99.90
6098;DHT22;3077;50.922;6.584;2022-09-09T06:18:29;17.70;99.90
6098;DHT22;3077;50.922;6.584;2022-09-09T06:23:20;17.80;99.90
6098;DHT22;3077;50.922;6.584;2022-09-09T06:25:46;17.90;99.90
6098;DHT22;3077;50.922;6.584;2022-09-09T06:28:12;18.10;99.90
6098;DHT22;3077;50.922;6.584;2022-09-09T06:30:38;18.20;99.90
6098;DHT22;3077;50.922;6.584;2022-09-09T06:33:05;18.40;99.90
6098;DHT22;3077;50.922;6.584;2022-09-09T06:35:30;18.50;99.90
6098;DHT22;3077;50.922;6.584;2022-09-09T06:37:56;18.50;99.90
6098;DHT22;3077;50.922;6.584;2022-09-09T06:40:24;18.60;99.90
6098;DHT22;3077;50.922;6.584;2022-09-09T06:42:50;18.60;99.90
6098;DHT22;3077;50.922;6.584;2022-09-09T06:45:16;18.70;99.90
6098;DHT22;3077;50.922;6.584;2022-09-09T06:47:42;18.70;99.90
6098;DHT22;3077;50.922;6.584;2022-09-09T06:50:08;18.70;99.90
6098;DHT22;3077;50.922;6.584;2022-09-09T06:52:33;18.70;99.90
6098;DHT22;3077;50.922;6.584;2022-09-09T06:54:59;18.70;99.90
6098;DHT22;3077;50.922;6.584;2022-09-09T06:57:24;18.70;99.90
6098;DHT22;3077;50.922;6.584;2022-09-09T06:59:50;18.60;99.90
6098;DHT22;3077;50.922;6.584;2022-09-09T07:02:16;18.70;99.90
6098;DHT22;3077;50.922;6.584;2022-09-09T07:04:41;18.70;99.90
6098;DHT22;3077;50.922;6.584;2022-09-09T07:07:07;18.80;99.90
6098;DHT22;3077;50.922;6.584;2022-09-09T07:09:35;18.90;99.90
6098;DHT22;3077;50.922;6.584;2022-09-09T07:12:00;18.90;99.90
6098;DHT22;3077;50.922;6.584;2022-09-09T07:14:26;19.00;99.90
6098;DHT22;3077;50.922;6.584;2022-09-09T07:16:52;19.00;99.90
6098;DHT22;3077;50.922;6.584;2022-09-09T07:19:18;19.10;99.90
6098;DHT22;3077;50.922;6.584;2022-09-09T07:21:44;19.10;99.90
6098;DHT22;3077;50.922;6.584;2022-09-09T07:24:10;19.10;99.90
6098;DHT22;3077;50.922;6.584;2022-09-09T07:26:38;19.00;99.90
6098;DHT22;3077;50.922;6.584;2022-09-09T07:29:04;19.00;99.90
6098;DHT22;3077;50.922;6.584;2022-09-09T07:31:33;19.00;99.90
6098;DHT22;3077;50.922;6.584;2022-09-09T07:34:00;19.00;99.90
6098;DHT22;3077;50.922;6.584;2022-09-09T07:36:31;19.10;99.90
6098;DHT22;3077;50.922;6.584;2022-09-09T07:39:11;19.10;99.90
6098;DHT22;3077;50.922;6.584;2022-09-09T07:41:44;19.30;99.90
6098;DHT22;3077;50.922;6.584;2022-09-09T07:44:13;19.40;99.90
6098;DHT22;3077;50.922;6.584;2022-09-09T07:46:40;19.50;99.90
6098;DHT22;3077;50.922;6.584;2022-09-09T07:49:07;19.70;99.90
6098;DHT22;3077;50.922;6.584;2022-09-09T07:51:36;19.80;99.90
6098;DHT22;3077;50.922;6.584;2022-09-09T07:54:05;19.90;99.90
6098;DHT22;3077;50.922;6.584;2022-09-09T07:56:31;19.90;99.90
6098;DHT22;3077;50.922;6.584;2022-09-09T07:58:58;20.00;99.90
6098;DHT22;3077;50.922;6.584;2022-09-09T08:01:33;20.00;99.90
6098;DHT22;3077;50.922;6.584;2022-09-09T08:04:13;20.00;99.90
6098;DHT22;3077;50.922;6.584;2022-09-09T08:06:50;20.00;99.90
6098;DHT22;3077;50.922;6.584;2022-09-09T08:09:18;20.00;99.90
6098;DHT22;3077;50.922;6.584;2022-09-09T08:11:44;20.10;99.90
6098;DHT22;3077;50.922;6.584;2022-09-09T08:14:11;20.10;99.90
6098;DHT22;3077;50.922;6.584;2022-09-09T08:16:39;20.10;99.90
6098;DHT22;3077;50.922;6.584;2022-09-09T08:19:06;20.20;99.90
6098;DHT22;3077;50.922;6.584;2022-09-09T08:21:34;20.30;99.90
6098;DHT22;3077;50.922;6.584;2022-09-09T08:24:00;20.30;99.90
6098;DHT22;3077;50.922;6.584;2022-09-09T08:26:31;20.40;99.90
6098;DHT22;3077;50.922;6.584;2022-09-09T08:28:58;20.30;99.90
6098;DHT22;3077;50.922;6.584;2022-09-09T08:31:30;20.30;99.90
6098;DHT22;3077;50.922;6.584;2022-09-09T08:33:57;20.40;99.90
6098;DHT22;3077;50.922;6.584;2022-09-09T08:36:26;20.30;99.90
6098;DHT22;3077;50.922;6.584;2022-09-09T08:38:55;20.30;99.90
6098;DHT22;3077;50.922;6.584;2022-09-09T08:52:30;20.00;99.90
6098;DHT22;3077;50.922;6.584;2022-09-09T08:57:57;20.00;99.90
6098;DHT22;3077;50.922;6.584;2022-09-09T09:00:33;20.00;99.90
6098;DHT22;3077;50.922;6.584;2022-09-09T09:04:14;19.90;99.90
6098;DHT22;3077;50.922;6.584;2022-09-09T09:11:26;20.00;99.90
6098;DHT22;3077;50.922;6.584;2022-09-09T09:13:57;20.10;99.90
6098;DHT22;3077;50.922;6.584;2022-09-09T09:18:59;20.20;99.90
6098;DHT22;3077;50.922;6.584;2022-09-09T09:24:01;20.20;99.90
6098;DHT22;3077;50.922;6.584;2022-09-09T09:26:32;20.30;99.90
6098;DHT22;3077;50.922;6.584;2022-09-09T09:28:59;20.40;99.90
6098;DHT22;3077;50.922;6.584;2022-09-09T09:31:27;20.50;99.90
6098;DHT22;3077;50.922;6.584;2022-09-09T09:33:54;20.70;99.90
6098;DHT22;3077;50.922;6.584;2022-09-09T09:36:25;20.70;99.90
6098;DHT22;3077;50.922;6.584;2022-09-09T09:39:00;20.90;99.90
6098;DHT22;3077;50.922;6.584;2022-09-09T09:41:38;20.90;99.90
6098;DHT22;3077;50.922;6.584;2022-09-09T09:44:06;20.80;99.90
6098;DHT22;3077;50.922;6.584;2022-09-09T09:46:32;20.80;99.90
6098;DHT22;3077;50.922;6.584;2022-09-09T09:49:04;20.80;99.90
6098;DHT22;3077;50.922;6.584;2022-09-09T09:51:32;20.70;99.90
6098;DHT22;3077;50.922;6.584;2022-09-09T09:56:39;21.00;99.90
6098;DHT22;3077;50.922;6.584;2022-09-09T09:59:05;21.10;99.90
6098;DHT22;3077;50.922;6.584;2022-09-09T10:01:44;21.20;99.90
6098;DHT22;3077;50.922;6.584;2022-09-09T10:04:18;21.20;99.90
6098;DHT22;3077;50.922;6.584;2022-09-09T10:06:46;21.20;99.90
6098;DHT22;3077;50.922;6.584;2022-09-09T10:09:29;21.10;99.90
6098;DHT22;3077;50.922;6.584;2022-09-09T10:29:27;21.60;99.90
6098;DHT22;3077;50.922;6.584;2022-09-09T10:51:31;21.10;99.90
6098;DHT22;3077;50.922;6.584;2022-09-09T10:56:52;20.90;99.90
6098;DHT22;3077;50.922;6.584;2022-09-09T10:59:25;20.80;99.90
6098;DHT22;3077;50.922;6.584;2022-09-09T11:04:43;20.90;99.90
6098;DHT22;3077;50.922;6.584;2022-09-09T11:07:13;21.00;99.90
6098;DHT22;3077;50.922;6.584;2022-09-09T11:09:47;21.10;99.90
6098;DHT22;3077;50.922;6.584;2022-09-09T11:12:18;21.20;99.90
6098;DHT22;3077;50.922;6.584;2022-09-09T11:14:59;21.30;99.90
6098;DHT22;3077;50.922;6.584;2022-09-09T11:17:35;21.20;99.90
6098;DHT22;3077;50.922;6.584;2022-09-09T11:20:05;21.30;99.90
6098;DHT22;3077;50.922;6.584;2022-09-09T11:22:51;21.40;99.90
6098;DHT22;3077;50.922;6.584;2022-09-09T11:25:23;21.50;99.90
6098;DHT22;3077;50.922;6.584;2022-09-09T11:28:24;21.40;99.90
6098;DHT22;3077;50.922;6.584;2022-09-09T11:31:21;21.40;99.90
6098;DHT22;3077;50.922;6.584;2022-09-09T11:42:18;21.30;99.90
6098;DHT22;3077;50.922;6.584;2022-09-09T11:44:45;21.40;99.90
6098;DHT22;3077;50.922;6.584;2022-09-09T11:47:27;21.30;99.90
6098;DHT22;3077;50.922;6.584;2022-09-09T11:50:08;21.20;99.90
6098;DHT22;3077;50.922;6.584;2022-09-09T11:52:38;21.30;99.90
6098;DHT22;3077;50.922;6.584;2022-09-09T11:55:32;21.30;99.90
6098;DHT22;3077;50.922;6.584;2022-09-09T11:58:03;21.50;99.90
6098;DHT22;3077;50.922;6.584;2022-09-09T12:02:58;21.50;99.90
6098;DHT22;3077;50.922;6.584;2022-09-09T12:05:42;21.40;99.90
6098;DHT22;3077;50.922;6.584;2022-09-09T12:08:15;21.30;99.90
6098;DHT22;3077;50.922;6.584;2022-09-09T12:10:54;21.40;99.90
6098;DHT22;3077;50.922;6.584;2022-09-09T12:13:23;21.40;99.90
6098;DHT22;3077;50.922;6.584;2022-09-09T12:15:51;21.20;99.90
6098;DHT22;3077;50.922;6.584;2022-09-09T12:18:34;20.90;99.90
6098;DHT22;3077;50.922;6.584;2022-09-09T12:21:31;20.20;99.90
6098;DHT22;3077;50.922;6.584;2022-09-09T12:24:11;19.50;99.90
6098;DHT22;3077;50.922;6.584;2022-09-09T12:26:46;19.00;99.90
6098;DHT22;3077;50.922;6.584;2022-09-09T12:34:54;19.50;99.90
6098;DHT22;3077;50.922;6.584;2022-09-09T12:37:36;20.10;99.90
6098;DHT22;3077;50.922;6.584;2022-09-09T12:40:21;20.80;99.90
6098;DHT22;3077;50.922;6.584;2022-09-09T12:42:49;21.40;99.90
6098;DHT22;3077;50.922;6.584;2022-09-09T12:45:24;21.90;99.90
6098;DHT22;3077;50.922;6.584;2022-09-09T12:47:59;22.70;99.90
6098;DHT22;3077;50.922;6.584;2022-09-09T12:53:07;23.40;99.90
6098;DHT22;3077;50.922;6.584;2022-09-09T12:55:36;23.50;99.90
6098;DHT22;3077;50.922;6.584;2022-09-09T12:58:04;23.30;99.90
6098;DHT22;3077;50.922;6.584;2022-09-09T13:00:32;23.20;99.90
6098;DHT22;3077;50.922;6.584;2022-09-09T13:03:01;23.00;99.90
6098;DHT22;3077;50.922;6.584;2022-09-09T13:05:38;22.80;99.90
6098;DHT22;3077;50.922;6.584;2022-09-09T13:08:10;22.60;99.90
6098;DHT22;3077;50.922;6.584;2022-09-09T13:10:53;22.40;99.90
6098;DHT22;3077;50.922;6.584;2022-09-09T13:13:27;22.40;99.90
6098;DHT22;3077;50.922;6.584;2022-09-09T13:15:57;22.80;99.90
6098;DHT22;3077;50.922;6.584;2022-09-09T13:18:34;22.80;99.90
6098;DHT22;3077;50.922;6.584;2022-09-09T13:21:01;23.10;99.90
6098;DHT22;3077;50.922;6.584;2022-09-09T13:23:32;23.20;99.90
6098;DHT22;3077;50.922;6.584;2022-09-09T13:26:06;23.10;99.90
6098;DHT22;3077;50.922;6.584;2022-09-09T13:28:44;23.30;99.90
6098;DHT22;3077;50.922;6.584;2022-09-09T13:31:30;23.20;99.90
6098;DHT22;3077;50.922;6.584;2022-09-09T13:33:58;23.50;99.90
6098;DHT22;3077;50.922;6.584;2022-09-09T13:36:33;23.60;99.90
6098;DHT22;3077;50.922;6.584;2022-09-09T13:39:02;23.60;99.90
6098;DHT22;3077;50.922;6.584;2022-09-09T13:41:36;23.60;99.90
6098;DHT22;3077;50.922;6.584;2022-09-09T13:44:03;24.30;99.90
6098;DHT22;3077;50.922;6.584;2022-09-09T13:46:37;25.10;99.90
6098;DHT22;3077;50.922;6.584;2022-09-09T13:49:21;25.00;99.90
6098;DHT22;3077;50.922;6.584;2022-09-09T13:52:02;24.70;99.90
6098;DHT22;3077;50.922;6.584;2022-09-09T13:54:28;24.60;99.90
6098;DHT22;3077;50.922;6.584;2022-09-09T13:56:56;24.10;99.90
6098;DHT22;3077;50.922;6.584;2022-09-09T13:59:21;23.60;99.90
6098;DHT22;3077;50.922;6.584;2022-09-09T14:01:47;23.40;99.90
6098;DHT22;3077;50.922;6.584;2022-09-09T14:04:15;23.40;99.90
6098;DHT22;3077;50.922;6.584;2022-09-09T14:06:41;24.20;99.90
6098;DHT22;3077;50.922;6.584;2022-09-09T14:09:11;24.60;99.90
6098;DHT22;3077;50.922;6.584;2022-09-09T14:11:38;24.10;99.90
6098;DHT22;3077;50.922;6.584;2022-09-09T14:14:03;23.50;99.90
6098;DHT22;3077;50.922;6.584;2022-09-09T14:16:30;22.90;99.90
6098;DHT22;3077;50.922;6.584;2022-09-09T14:18:56;22.40;99.90
6098;DHT22;3077;50.922;6.584;2022-09-09T14:21:22;22.10;99.90
6098;DHT22;3077;50.922;6.584;2022-09-09T14:23:48;21.80;99.90
6098;DHT22;3077;50.922;6.584;2022-09-09T14:26:14;21.90;99.90
6098;DHT22;3077;50.922;6.584;2022-09-09T14:28:39;22.60;99.90
6098;DHT22;3077;50.922;6.584;2022-09-09T14:31:06;23.30;99.90
6098;DHT22;3077;50.922;6.584;2022-09-09T14:33:32;24.10;99.90
6098;DHT22;3077;50.922;6.584;2022-09-09T14:35:59;24.80;99.90
6098;DHT22;3077;50.922;6.584;2022-09-09T14:38:28;24.50;99.90
6098;DHT22;3077;50.922;6.584;2022-09-09T14:40:54;24.10;99.90
6098;DHT22;3077;50.922;6.584;2022-09-09T14:43:19;23.80;99.90
6098;DHT22;3077;50.922;6.584;2022-09-09T14:45:45;23.60;99.90
6098;DHT22;3077;50.922;6.584;2022-09-09T14:48:13;23.50;99.90
6098;DHT22;3077;50.922;6.584;2022-09-09T14:50:40;23.30;99.90
6098;DHT22;3077;50.922;6.584;2022-09-09T14:53:06;23.40;99.90
6098;DHT22;3077;50.922;6.584;2022-09-09T14:55:34;23.20;99.90
6098;DHT22;3077;50.922;6.584;2022-09-09T14:57:59;23.10;99.90
6098;DHT22;3077;50.922;6.584;2022-09-09T15:00:25;23.00;99.90
6098;DHT22;3077;50.922;6.584;2022-09-09T15:02:54;22.70;99.90
6098;DHT22;3077;50.922;6.584;2022-09-09T15:05:21;22.70;99.90
6098;DHT22;3077;50.922;6.584;2022-09-09T15:07:46;22.70;99.90
6098;DHT22;3077;50.922;6.584;2022-09-09T15:10:13;22.50;99.90
6098;DHT22;3077;50.922;6.584;2022-09-09T15:12:39;22.00;99.90
6098;DHT22;3077;50.922;6.584;2022-09-09T15:15:05;21.70;99.90
6098;DHT22;3077;50.922;6.584;2022-09-09T15:17:31;21.50;99.90
6098;DHT22;3077;50.922;6.584;2022-09-09T15:19:57;21.30;99.90
6098;DHT22;3077;50.922;6.584;2022-09-09T15:22:23;21.40;99.90
6098;DHT22;3077;50.922;6.584;2022-09-09T15:24:49;21.70;99.90
6098;DHT22;3077;50.922;6.584;2022-09-09T15:27:15;21.80;99.90
6098;DHT22;3077;50.922;6.584;2022-09-09T15:29:41;22.40;99.90
6098;DHT22;3077;50.922;6.584;2022-09-09T15:32:07;22.90;99.90
6098;DHT22;3077;50.922;6.584;2022-09-09T15:34:33;22.80;99.90
6098;DHT22;3077;50.922;6.584;2022-09-09T15:36:59;23.10;99.90
6098;DHT22;3077;50.922;6.584;2022-09-09T15:39:25;23.20;99.90
6098;DHT22;3077;50.922;6.584;2022-09-09T15:41:50;23.90;99.90
6098;DHT22;3077;50.922;6.584;2022-09-09T15:44:16;25.20;99.90
6098;DHT22;3077;50.922;6.584;2022-09-09T15:46:43;26.10;99.90
6098;DHT22;3077;50.922;6.584;2022-09-09T15:49:11;25.70;99.90
6098;DHT22;3077;50.922;6.584;2022-09-09T15:51:40;24.70;99.90
6098;DHT22;3077;50.922;6.584;2022-09-09T15:54:06;23.70;99.90
6098;DHT22;3077;50.922;6.584;2022-09-09T15:56:32;23.00;99.90
6098;DHT22;3077;50.922;6.584;2022-09-09T15:59:01;22.50;99.90
6098;DHT22;3077;50.922;6.584;2022-09-09T16:01:29;22.50;99.90
6098;DHT22;3077;50.922;6.584;2022-09-09T16:03:55;22.30;99.90
6098;DHT22;3077;50.922;6.584;2022-09-09T16:06:23;22.20;99.90
6098;DHT22;3077;50.922;6.584;2022-09-09T16:08:51;21.80;99.90
6098;DHT22;3077;50.922;6.584;2022-09-09T16:11:26;21.40;99.90
6098;DHT22;3077;50.922;6.584;2022-09-09T16:13:53;21.10;99.90
6098;DHT22;3077;50.922;6.584;2022-09-09T16:16:21;20.90;99.90
6098;DHT22;3077;50.922;6.584;2022-09-09T16:18:50;20.70;99.90
6098;DHT22;3077;50.922;6.584;2022-09-09T16:21:25;20.70;99.90
6098;DHT22;3077;50.922;6.584;2022-09-09T16:23:52;20.70;99.90
6098;DHT22;3077;50.922;6.584;2022-09-09T16:26:21;20.80;99.90
6098;DHT22;3077;50.922;6.584;2022-09-09T16:28:48;21.00;99.90
6098;DHT22;3077;50.922;6.584;2022-09-09T16:31:16;21.10;99.90
6098;DHT22;3077;50.922;6.584;2022-09-09T16:33:42;21.20;99.90
6098;DHT22;3077;50.922;6.584;2022-09-09T16:36:14;21.10;99.90
6098;DHT22;3077;50.922;6.584;2022-09-09T16:38:40;21.20;99.90
6098;DHT22;3077;50.922;6.584;2022-09-09T16:41:08;21.50;99.90
6098;DHT22;3077;50.922;6.584;2022-09-09T16:43:35;22.00;99.90
6098;DHT22;3077;50.922;6.584;2022-09-09T16:48:36;22.70;99.90
6098;DHT22;3077;50.922;6.584;2022-09-09T16:51:07;22.30;99.90
6098;DHT22;3077;50.922;6.584;2022-09-09T16:53:34;22.00;99.90
6098;DHT22;3077;50.922;6.584;2022-09-09T16:56:06;21.60;99.90
6098;DHT22;3077;50.922;6.584;2022-09-09T16:58:32;21.30;99.90
6098;DHT22;3077;50.922;6.584;2022-09-09T17:00:59;21.10;99.90
6098;DHT22;3077;50.922;6.584;2022-09-09T17:03:25;20.90;99.90
6098;DHT22;3077;50.922;6.584;2022-09-09T17:05:51;20.70;99.90
6098;DHT22;3077;50.922;6.584;2022-09-09T17:08:17;20.60;99.90
6098;DHT22;3077;50.922;6.584;2022-09-09T17:10:42;20.60;99.90
6098;DHT22;3077;50.922;6.584;2022-09-09T17:13:08;20.80;99.90
6098;DHT22;3077;50.922;6.584;2022-09-09T17:15:38;20.70;99.90
6098;DHT22;3077;50.922;6.584;2022-09-09T17:18:04;20.50;99.90
6098;DHT22;3077;50.922;6.584;2022-09-09T17:20:30;20.30;99.90
6098;DHT22;3077;50.922;6.584;2022-09-09T17:22:55;20.20;99.90
6098;DHT22;3077;50.922;6.584;2022-09-09T17:25:21;20.00;99.90
6098;DHT22;3077;50.922;6.584;2022-09-09T17:27:48;19.90;99.90
6098;DHT22;3077;50.922;6.584;2022-09-09T17:30:13;19.80;99.90
6098;DHT22;3077;50.922;6.584;2022-09-09T17:32:41;19.70;99.90
6098;DHT22;3077;50.922;6.584;2022-09-09T17:35:07;19.70;99.90
6098;DHT22;3077;50.922;6.584;2022-09-09T17:37:33;19.60;99.90
6098;DHT22;3077;50.922;6.584;2022-09-09T17:39:58;19.60;99.90
6098;DHT22;3077;50.922;6.584;2022-09-09T17:42:24;19.40;99.90
6098;DHT22;3077;50.922;6.584;2022-09-09T17:44:50;19.40;99.90
6098;DHT22;3077;50.922;6.584;2022-09-09T17:47:15;19.40;99.90
6098;DHT22;3077;50.922;6.584;2022-09-09T17:49:41;19.30;99.90
6098;DHT22;3077;50.922;6.584;2022-09-09T17:52:07;19.30;99.90
6098;DHT22;3077;50.922;6.584;2022-09-09T17:54:32;19.20;99.90
6098;DHT22;3077;50.922;6.584;2022-09-09T17:56:58;19.00;99.90
6098;DHT22;3077;50.922;6.584;2022-09-09T17:59:24;18.90;99.90
6098;DHT22;3077;50.922;6.584;2022-09-09T18:01:50;18.70;99.90
6098;DHT22;3077;50.922;6.584;2022-09-09T18:04:18;18.60;99.90
6098;DHT22;3077;50.922;6.584;2022-09-09T18:06:49;18.60;99.90
6098;DHT22;3077;50.922;6.584;2022-09-09T18:09:20;18.60;99.90
6098;DHT22;3077;50.922;6.584;2022-09-09T18:11:49;18.60;99.90
6098;DHT22;3077;50.922;6.584;2022-09-09T18:14:21;18.60;99.90
6098;DHT22;3077;50.922;6.584;2022-09-09T18:16:47;18.60;99.90
6098;DHT22;3077;50.922;6.584;2022-09-09T18:19:15;18.60;99.90
6098;DHT22;3077;50.922;6.584;2022-09-09T18:21:42;18.50;99.90
6098;DHT22;3077;50.922;6.584;2022-09-09T18:24:09;18.40;99.90